Los Ebanos, Texas
Current Conditions -  °F | °C
As of 7:53 PM on Wednesday 26 Nov 2014 (Local Time) from KMFE Reporting Station
Clear Clear  
Wind Chill: 58°   Ceiling: Unl
Heat Index: 58°   Visibility: 10mi
Dew Point: 49°   Wind: 5mph
Humidity: 72%   Direction: 130°SE
Pressure: 30.28"   Gusts: NA
Location:  26.24°N, 98.56°W
Report Text: KMFE 270153Z 13004KT 10SM CLR 14/09 A3028 RMK AO2 SLP252 T01440094
Loading
Personal Weather Stations






























Interactive Weather Map New forecast layout! Learn more

10-Day Weather Forecast

Advertisements
Track Severe Weather on mobile